Time;durP1;ratioP1;P1;durP2;ratioP2;P2;SDS_P1;SDS_P2;PMS_P1;PMS_P2;Temp;Humidity;BMP_temperature;BMP_pressure;BME280_temperature;BME280_humidity;BME280_pressure;Samples;Min_cycle;Max_cycle;Signal;HPM_P1;HPM_P2
2023/11/13 00:01:49;;;;;;;3.00;2.70;;;;;;;7.84;100.00;95448.81;6151232;23;20178;-82
2023/11/13 00:04:15;;;;;;;3.63;2.60;;;;;;;7.84;100.00;95443.69;6150963;23;20646;-82
2023/11/13 00:06:43;;;;;;;3.10;2.80;;;;;;;7.86;100.00;95451.22;6151736;23;20191;-82
2023/11/13 00:09:10;;;;;;;3.03;2.77;;;;;;;7.88;100.00;95456.97;6151372;23;20649;-82
2023/11/13 00:11:36;;;;;;;2.97;2.67;;;;;;;7.91;100.00;95443.81;6151835;23;20171;-81
2023/11/13 00:14:03;;;;;;;3.00;2.70;;;;;;;7.91;100.00;95454.06;6151919;23;20179;-82
2023/11/13 00:16:29;;;;;;;3.90;3.50;;;;;;;7.87;100.00;95469.00;6151079;23;20202;-82
2023/11/13 00:18:55;;;;;;;3.67;3.37;;;;;;;7.91;100.00;95460.00;6150945;23;20194;-81
2023/11/13 00:21:22;;;;;;;4.03;3.63;;;;;;;7.89;100.00;95476.50;6151634;23;20178;-82
2023/11/13 00:23:50;;;;;;;3.83;3.40;;;;;;;7.85;100.00;95490.63;6150799;23;20175;-82
2023/11/13 00:26:17;;;;;;;3.60;3.30;;;;;;;7.83;100.00;95493.34;6151446;23;20195;-82
2023/11/13 00:28:44;;;;;;;4.00;3.70;;;;;;;7.84;100.00;95483.88;6151391;23;20262;-82
2023/11/13 00:31:11;;;;;;;5.07;4.37;;;;;;;7.81;100.00;95494.47;6151752;23;20175;-82
2023/11/13 00:33:38;;;;;;;4.07;3.63;;;;;;;7.80;100.00;95513.34;6150116;23;20175;-82
2023/11/13 00:36:06;;;;;;;4.70;4.30;;;;;;;7.78;100.00;95521.22;6151015;23;20674;-82
2023/11/13 00:38:32;;;;;;;4.47;4.07;;;;;;;7.78;100.00;95510.16;6150839;23;20646;-82
2023/11/13 00:41:00;;;;;;;4.60;4.20;;;;;;;7.77;100.00;95519.59;6150925;23;20175;-82
2023/11/13 00:43:26;;;;;;;4.50;4.10;;;;;;;7.81;100.00;95528.59;6151191;23;20179;-82
2023/11/13 00:45:53;;;;;;;4.93;4.43;;;;;;;7.84;100.00;95510.31;6151359;23;20558;-82
2023/11/13 00:48:19;;;;;;;5.43;4.80;;;;;;;7.88;100.00;95503.91;6150349;23;20178;-82
2023/11/13 00:50:46;;;;;;;4.93;4.40;;;;;;;7.92;100.00;95510.28;6150694;23;20525;-82
2023/11/13 00:53:12;;;;;;;5.00;4.50;;;;;;;7.93;100.00;95509.34;6150331;23;20680;-82
2023/11/13 00:55:39;;;;;;;4.47;4.07;;;;;;;7.95;100.00;95504.06;6150416;23;20182;-81
2023/11/13 00:58:07;;;;;;;5.30;4.27;;;;;;;7.96;100.00;95498.75;6150546;23;20205;-81
2023/11/13 01:00:34;;;;;;;5.20;4.70;;;;;;;7.90;100.00;95489.16;6151624;23;20197;-81
2023/11/13 01:03:01;;;;;;;5.07;4.57;;;;;;;7.93;100.00;95490.59;6150829;23;20174;-82
2023/11/13 01:05:27;;;;;;;5.20;4.67;;;;;;;7.94;100.00;95476.81;6151301;23;20206;-82
2023/11/13 01:07:54;;;;;;;5.40;4.60;;;;;;;7.93;100.00;95473.44;6150925;23;20197;-82
2023/11/13 01:10:21;;;;;;;5.20;4.70;;;;;;;7.94;100.00;95467.34;6151070;23;20179;-82
2023/11/13 01:12:47;;;;;;;4.97;4.57;;;;;;;7.98;100.00;95470.41;6151389;23;20179;-82
2023/11/13 01:15:15;;;;;;;5.53;5.03;;;;;;;7.97;100.00;95459.34;6151202;23;20205;-82
2023/11/13 01:17:41;;;;;;;5.17;4.70;;;;;;;7.94;100.00;95461.44;6150441;23;20206;-82
2023/11/13 01:20:09;;;;;;;5.60;5.10;;;;;;;7.95;100.00;95463.84;6150884;23;20174;-82
2023/11/13 01:22:36;;;;;;;7.33;5.00;;;;;;;7.95;100.00;95463.03;6150466;23;20250;-82
2023/11/13 01:25:03;;;;;;;5.97;5.37;;;;;;;7.90;100.00;95478.09;6149815;23;20183;-82
2023/11/13 01:27:29;;;;;;;6.00;5.40;;;;;;;7.90;100.00;95483.22;6150944;23;20191;-82
2023/11/13 01:29:56;;;;;;;5.30;4.70;;;;;;;7.93;100.00;95488.81;6150603;23;20491;-82
2023/11/13 01:32:23;;;;;;;5.83;5.10;;;;;;;7.99;100.00;95484.81;6150468;23;20178;-82
2023/11/13 01:34:50;;;;;;;6.13;5.40;;;;;;;7.96;100.00;95500.53;6150898;23;20181;-82
2023/11/13 01:37:17;;;;;;;5.67;5.17;;;;;;;7.95;100.00;95509.19;6151177;23;20670;-82
2023/11/13 01:39:44;;;;;;;5.83;5.23;;;;;;;7.92;100.00;95519.75;6150477;23;20228;-81
2023/11/13 01:42:10;;;;;;;6.17;5.27;;;;;;;7.96;100.00;95508.22;6151267;23;20179;-82
2023/11/13 01:44:36;;;;;;;5.90;5.27;;;;;;;8.00;100.00;95498.44;6150897;23;20178;-82
2023/11/13 01:47:05;;;;;;;5.93;5.40;;;;;;;7.97;100.00;95491.88;6150696;23;20195;-82
2023/11/13 01:49:33;;;;;;;6.40;5.80;;;;;;;7.98;100.00;95496.84;6151239;23;20175;-82
2023/11/13 01:52:01;;;;;;;6.63;5.90;;;;;;;8.02;100.00;95492.19;6150965;23;20186;-82
2023/11/13 01:54:28;;;;;;;7.87;5.57;;;;;;;8.06;100.00;95490.13;6150131;23;20159;-82
2023/11/13 01:56:56;;;;;;;6.30;5.70;;;;;;;8.03;100.00;95498.13;6150852;23;20586;-82
2023/11/13 01:59:23;;;;;;;6.37;5.77;;;;;;;7.95;100.00;95501.50;6151249;23;20515;-82
2023/11/13 02:01:50;;;;;;;8.23;6.27;;;;;;;7.93;100.00;95501.66;6150575;23;20179;-82
2023/11/13 02:04:16;;;;;;;8.20;6.83;;;;;;;7.87;100.00;95498.94;6150707;23;20187;-82
2023/11/13 02:06:46;;;;;;;8.40;6.30;;;;;;;7.87;100.00;95515.13;6150894;23;20206;-82
2023/11/13 02:09:13;;;;;;;7.37;6.50;;;;;;;7.93;100.00;95516.22;6150703;23;20175;-81
2023/11/13 02:11:40;;;;;;;7.13;6.43;;;;;;;7.97;100.00;95517.50;6150965;23;20179;-81
2023/11/13 02:14:07;;;;;;;8.13;6.83;;;;;;;7.89;100.00;95518.31;6150838;23;20258;-82
2023/11/13 02:16:34;;;;;;;8.27;7.23;;;;;;;7.87;100.00;95525.38;6149911;23;20287;-82
2023/11/13 02:19:01;;;;;;;6.90;6.20;;;;;;;7.94;100.00;95517.81;6150445;23;20183;-82
2023/11/13 02:21:27;;;;;;;6.80;5.93;;;;;;;8.01;100.00;95513.66;6151232;23;20639;-82
2023/11/13 02:23:56;;;;;;;6.90;6.20;;;;;;;8.08;100.00;95503.56;6151104;23;20175;-82
2023/11/13 02:26:24;;;;;;;7.00;6.30;;;;;;;8.11;100.00;95492.97;6151889;23;20522;-82
2023/11/13 02:28:50;;;;;;;6.83;6.13;;;;;;;8.13;100.00;95488.47;6152517;23;20263;-81
2023/11/13 02:31:17;;;;;;;7.20;6.50;;;;;;;8.13;100.00;95491.03;6152678;23;20182;-82
2023/11/13 02:33:44;;;;;;;7.30;6.60;;;;;;;8.12;100.00;95489.44;6152778;23;20514;-82
2023/11/13 02:36:10;;;;;;;7.13;6.30;;;;;;;8.08;100.00;95496.66;6152359;23;20199;-82
2023/11/13 02:38:37;;;;;;;7.77;6.97;;;;;;;8.13;100.00;95494.41;6152027;23;20195;-82
2023/11/13 02:41:05;;;;;;;6.70;6.03;;;;;;;8.17;100.00;95477.72;6152777;23;20179;-82
2023/11/13 02:43:31;;;;;;;8.70;7.07;;;;;;;8.17;100.00;95493.13;6151722;23;20186;-82
2023/11/13 02:45:58;;;;;;;7.70;6.90;;;;;;;8.20;100.00;95484.31;6151915;23;20261;-82
2023/11/13 02:48:24;;;;;;;8.00;6.70;;;;;;;8.17;100.00;95497.44;6151954;23;20207;-82
2023/11/13 02:50:51;;;;;;;8.70;7.07;;;;;;;8.20;100.00;95504.81;6151718;23;20186;-82
2023/11/13 02:53:17;;;;;;;8.73;7.33;;;;;;;8.25;100.00;95502.56;6151344;23;20187;-82
2023/11/13 02:55:44;;;;;;;9.20;7.17;;;;;;;8.28;100.00;95485.06;6152431;23;20175;-82
2023/11/13 02:58:12;;;;;;;8.40;7.17;;;;;;;8.32;100.00;95491.50;6152009;23;20524;-82
2023/11/13 03:00:38;;;;;;;8.00;6.77;;;;;;;8.36;100.00;95493.75;6151614;23;20179;-82
2023/11/13 03:03:04;;;;;;;7.67;6.70;;;;;;;8.41;100.00;95483.78;6152773;23;20175;-82
2023/11/13 03:05:31;;;;;;;7.53;6.23;;;;;;;8.41;100.00;95483.78;6151890;23;20187;-82
2023/11/13 03:07:58;;;;;;;9.70;7.33;;;;;;;8.42;100.00;95482.84;6152147;23;20202;-81
2023/11/13 03:10:25;;;;;;;8.03;6.67;;;;;;;8.46;100.00;95481.53;6152521;23;20511;-82
2023/11/13 03:12:52;;;;;;;9.67;7.33;;;;;;;8.46;100.00;95476.41;6152612;23;20186;-82
2023/11/13 03:15:21;;;;;;;7.27;6.13;;;;;;;8.48;100.00;95490.66;6151346;23;20179;-82
2023/11/13 03:17:48;;;;;;;7.50;6.43;;;;;;;8.48;100.00;95497.53;6152130;23;20209;-82
2023/11/13 03:20:14;;;;;;;7.60;6.30;;;;;;;8.52;100.00;95499.63;6152542;23;20175;-81
2023/11/13 03:22:41;;;;;;;7.60;5.87;;;;;;;8.57;100.00;95487.09;6152313;23;20175;-82
2023/11/13 03:25:08;;;;;;;6.77;5.47;;;;;;;8.56;100.00;95495.78;6150946;23;20792;-82
2023/11/13 03:27:35;;;;;;;8.27;6.37;;;;;;;8.58;100.00;95504.09;6151192;23;20678;-82
2023/11/13 03:30:02;;;;;;;6.50;5.77;;;;;;;8.59;100.00;95508.28;6151508;23;20179;-82
2023/11/13 03:32:30;;;;;;;6.60;5.70;;;;;;;8.65;100.00;95499.91;6151160;23;20182;-83
2023/11/13 03:34:57;;;;;;;6.67;5.50;;;;;;;8.72;100.00;95488.97;6151619;23;20179;-82
2023/11/13 03:37:23;;;;;;;7.03;6.00;;;;;;;8.75;100.00;95478.38;6151494;23;20206;-81
2023/11/13 03:39:50;;;;;;;7.17;6.17;;;;;;;8.76;100.00;95478.19;6151723;23;20183;-82
2023/11/13 03:42:18;;;;;;;8.13;6.60;;;;;;;8.76;100.00;95487.66;6151412;23;20178;-82
2023/11/13 03:44:44;;;;;;;7.20;6.27;;;;;;;8.75;100.00;95480.94;6151717;23;20206;-82
2023/11/13 03:47:10;;;;;;;8.53;6.37;;;;;;;8.77;100.00;95489.28;6152447;23;20205;-82
2023/11/13 03:49:38;;;;;;;8.27;6.23;;;;;;;8.74;100.00;95492.16;6152266;23;20179;-82
2023/11/13 03:52:06;;;;;;;7.63;5.40;;;;;;;8.78;100.00;95504.50;6151606;23;20175;-82
2023/11/13 03:54:32;;;;;;;6.67;5.30;;;;;;;8.80;100.00;95491.50;6151764;23;20174;-82
2023/11/13 03:56:58;;;;;;;6.93;5.60;;;;;;;8.79;100.00;95502.75;6151621;23;20221;-82
2023/11/13 03:59:25;;;;;;;7.63;5.53;;;;;;;8.82;100.00;95497.28;6152513;23;20521;-82
2023/11/13 04:01:51;;;;;;;8.13;6.20;;;;;;;8.79;100.00;95493.28;6151684;23;20570;-82
2023/11/13 04:04:18;;;;;;;6.40;5.37;;;;;;;8.78;100.00;95496.81;6150940;23;20186;-82
2023/11/13 04:06:45;;;;;;;7.60;5.17;;;;;;;8.83;100.00;95496.31;6151407;23;20202;-82
2023/11/13 04:09:12;;;;;;;7.50;4.73;;;;;;;8.88;100.00;95494.03;6151646;23;20634;-82
2023/11/13 04:11:39;;;;;;;7.10;5.13;;;;;;;8.93;100.00;95484.84;6151783;23;20174;-82
2023/11/13 04:14:05;;;;;;;5.27;4.37;;;;;;;8.96;100.00;95486.28;6151612;23;20182;-82
2023/11/13 04:16:32;;;;;;;6.87;4.10;;;;;;;8.98;100.00;95477.44;6150776;23;20198;-82
2023/11/13 04:18:58;;;;;;;5.37;3.97;;;;;;;9.03;100.00;95478.72;6151343;23;20194;-82
2023/11/13 04:21:24;;;;;;;4.53;3.80;;;;;;;8.99;100.00;95489.31;6151264;23;20179;-82
2023/11/13 04:23:52;;;;;;;5.63;4.00;;;;;;;9.02;100.00;95495.91;6150631;23;20182;-82
2023/11/13 04:26:19;;;;;;;4.93;3.60;;;;;;;9.04;100.00;95493.16;6151617;23;20563;-83
2023/11/13 04:28:45;;;;;;;5.07;4.00;;;;;;;9.11;100.00;95502.56;6151890;23;20194;-82
2023/11/13 04:31:15;;;;;;;4.27;3.53;;;;;;;9.12;100.00;95498.22;6151059;23;20175;-82
2023/11/13 04:33:41;;;;;;;4.30;3.67;;;;;;;9.16;100.00;95499.50;6151727;23;20670;-82
2023/11/13 04:36:08;;;;;;;4.70;3.83;;;;;;;9.14;100.00;95479.13;6151099;23;20199;-82
2023/11/13 04:38:37;;;;;;;3.50;3.17;;;;;;;9.19;100.00;95486.31;6150334;23;20194;-82
2023/11/13 04:41:06;;;;;;;4.37;3.70;;;;;;;9.19;100.00;95486.31;6151540;23;20194;-82
2023/11/13 04:43:32;;;;;;;6.43;3.70;;;;;;;9.20;100.00;95483.59;6151477;23;20179;-82
2023/11/13 04:45:59;;;;;;;4.83;3.87;;;;;;;9.17;100.00;95501.91;6150754;23;20186;-82
2023/11/13 04:48:25;;;;;;;3.93;3.17;;;;;;;9.17;100.00;95503.66;6150674;23;20186;-82
2023/11/13 04:50:53;;;;;;;3.30;3.00;;;;;;;9.16;100.00;95502.88;6151224;23;20197;-82
2023/11/13 04:53:19;;;;;;;4.03;2.80;;;;;;;9.18;100.00;95497.56;6150238;23;20225;-82
2023/11/13 04:55:46;;;;;;;3.83;2.70;;;;;;;9.20;100.00;95509.28;6151323;23;20178;-82
2023/11/13 04:58:14;;;;;;;4.90;2.47;;;;;;;9.19;100.00;95515.38;6151349;23;20274;-82
2023/11/13 05:00:40;;;;;;;3.13;2.30;;;;;;;9.21;100.00;95513.44;6151560;23;20175;-83
2023/11/13 05:03:07;;;;;;;3.23;2.17;;;;;;;9.24;100.00;95520.78;6151339;23;20175;-82
2023/11/13 05:05:36;;;;;;;3.90;1.80;;;;;;;9.23;100.00;95526.13;6151384;23;20183;-82
2023/11/13 05:08:03;;;;;;;7.23;1.83;;;;;;;9.26;100.00;95547.09;6150610;23;20190;-82
2023/11/13 05:10:29;;;;;;;5.73;1.87;;;;;;;9.37;100.00;95540.00;6151168;23;20261;-82
2023/11/13 05:12:56;;;;;;;3.17;1.47;;;;;;;9.46;100.00;95537.19;6151926;23;20183;-82
2023/11/13 05:15:24;;;;;;;6.57;1.67;;;;;;;9.54;100.00;95528.66;6151089;23;20231;-83
2023/11/13 05:17:50;;;;;;;5.70;1.80;;;;;;;9.58;100.00;95525.56;6151028;23;20202;-83
2023/11/13 05:20:17;;;;;;;7.30;1.83;;;;;;;9.66;100.00;95525.50;6151852;23;20182;-82
2023/11/13 05:22:44;;;;;;;7.60;1.90;;;;;;;9.69;100.00;95532.88;6157412;23;20250;-83
2023/11/13 05:25:11;;;;;;;4.43;1.80;;;;;;;9.73;100.00;95517.91;6165298;23;20179;-83
2023/11/13 05:27:38;;;;;;;7.50;1.70;;;;;;;9.76;100.00;95519.31;6167511;23;20198;-83
2023/11/13 05:30:07;;;;;;;6.57;1.80;;;;;;;9.79;100.00;95519.78;6166819;23;20221;-82
2023/11/13 05:32:35;;;;;;;5.33;1.50;;;;;;;9.90;100.00;95518.56;6167577;23;20178;-82
2023/11/13 05:35:02;;;;;;;3.47;1.60;;;;;;;9.93;100.00;95525.94;6168369;23;20171;-82
2023/11/13 05:37:28;;;;;;;7.63;2.50;;;;;;;9.98;100.00;95511.59;6167411;23;20187;-82
2023/11/13 05:39:55;;;;;;;7.13;1.97;;;;;;;10.02;100.00;95502.53;6167959;23;20194;-83
2023/11/13 05:42:23;;;;;;;4.53;1.50;;;;;;;10.02;100.00;95504.31;6170019;23;20178;-83
2023/11/13 05:44:49;;;;;;;5.70;1.70;;;;;;;10.05;100.00;95488.53;6168492;23;20393;-82
2023/11/13 05:47:17;;;;;;;7.13;1.93;;;;;;;10.09;100.00;95483.84;6166094;23;20198;-83
2023/11/13 05:49:44;;;;;;;7.03;1.90;;;;;;;10.12;100.00;95478.34;6163814;23;20208;-83
2023/11/13 05:52:11;;;;;;;6.73;1.60;;;;;;;10.14;100.00;95477.19;6157901;23;20194;-82
2023/11/13 05:54:38;;;;;;;8.27;2.10;;;;;;;10.20;100.00;95473.16;6160561;23;20179;-83
2023/11/13 05:57:05;;;;;;;3.27;1.40;;;;;;;10.20;100.00;95468.00;6156026;23;20254;-82
2023/11/13 05:59:44;;;;;;;4.87;1.70;;;;;;;10.28;100.00;95473.06;6157524;23;20198;-83
2023/11/13 06:02:13;;;;;;;4.43;1.50;;;;;;;10.29;100.00;95472.09;6155108;23;20197;-84
2023/11/13 06:04:44;;;;;;;4.60;1.80;;;;;;;10.27;100.00;95449.09;6153584;23;20185;-83
2023/11/13 06:07:11;;;;;;;4.23;1.83;;;;;;;10.30;100.00;95437.66;6160149;23;20667;-83
2023/11/13 06:09:42;;;;;;;3.87;1.57;;;;;;;10.33;100.00;95445.03;6160878;23;20510;-83
2023/11/13 06:12:09;;;;;;;4.77;2.00;;;;;;;10.33;100.00;95435.53;6161442;23;20159;-84
2023/11/13 06:14:35;;;;;;;5.87;1.47;;;;;;;10.35;100.00;95430.22;6162903;23;20503;-83
2023/11/13 06:17:02;;;;;;;5.30;1.70;;;;;;;10.38;100.00;95429.84;6163955;23;20198;-83
2023/11/13 06:19:28;;;;;;;3.97;1.30;;;;;;;10.42;100.00;95432.84;6161804;23;20218;-83
2023/11/13 06:21:56;;;;;;;5.17;1.70;;;;;;;10.47;100.00;95426.19;6164701;23;20179;-84
2023/11/13 06:24:22;;;;;;;4.40;1.60;;;;;;;10.45;100.00;95410.13;6164329;23;20181;-83
2023/11/13 06:26:49;;;;;;;4.73;1.60;;;;;;;10.51;100.00;95409.41;6163684;23;20533;-84
2023/11/13 06:29:16;;;;;;;3.40;1.23;;;;;;;10.49;100.00;95405.41;6164521;23;20203;-84
2023/11/13 06:31:43;;;;;;;3.53;1.30;;;;;;;10.53;100.00;95404.09;6164242;23;20175;-84
2023/11/13 06:34:11;;;;;;;4.10;1.43;;;;;;;10.58;100.00;95396.63;6164085;23;20179;-83
2023/11/13 06:36:41;;;;;;;2.73;1.20;;;;;;;10.61;100.00;95401.41;6162531;23;20214;-83
2023/11/13 06:39:11;;;;;;;4.83;1.30;;;;;;;10.65;100.00;95407.78;6164466;23;20183;-83
2023/11/13 06:41:38;;;;;;;3.83;1.10;;;;;;;10.65;100.00;95397.47;6164754;23;20164;-83
2023/11/13 06:44:07;;;;;;;3.63;1.30;;;;;;;10.66;100.00;95401.66;6165657;23;20183;-83
2023/11/13 06:46:34;;;;;;;3.47;1.40;;;;;;;10.70;100.00;95406.28;6165959;23;20422;-83
2023/11/13 06:49:00;;;;;;;4.57;2.63;;;;;;;10.71;100.00;95410.44;6164732;23;20174;-83
2023/11/13 06:51:27;;;;;;;3.50;1.20;;;;;;;10.72;100.00;95403.50;6163447;23;20190;-84
2023/11/13 06:53:54;;;;;;;2.77;1.23;;;;;;;10.78;100.00;95381.38;6162843;23;20186;-83
2023/11/13 06:56:22;;;;;;;4.17;1.60;;;;;;;10.81;100.00;95394.69;6162250;23;20277;-83
2023/11/13 06:58:49;;;;;;;1.83;1.10;;;;;;;10.79;100.00;95388.13;6162641;23;20553;-83
2023/11/13 07:01:16;;;;;;;2.03;1.10;;;;;;;10.82;100.00;95388.56;6163971;23;20271;-84
2023/11/13 07:03:43;;;;;;;5.23;1.37;;;;;;;10.83;100.00;95407.38;6163023;23;20179;-84
2023/11/13 07:06:11;;;;;;;3.30;1.30;;;;;;;10.84;100.00;95407.19;6166940;23;20179;-83
2023/11/13 07:08:37;;;;;;;3.27;1.10;;;;;;;10.87;100.00;95399.13;6165627;23;20229;-83
2023/11/13 07:11:04;;;;;;;3.17;1.20;;;;;;;10.87;100.00;95398.31;6164056;23;20182;-83
2023/11/13 07:13:33;;;;;;;2.27;0.97;;;;;;;10.90;100.00;95393.59;6161255;23;20179;-83
2023/11/13 07:15:59;;;;;;;2.73;1.17;;;;;;;10.89;100.00;95389.44;6166224;23;20174;-82
2023/11/13 07:18:25;;;;;;;1.53;1.00;;;;;;;10.86;100.00;95394.16;6162485;23;20206;-84
2023/11/13 07:20:52;;;;;;;2.87;1.30;;;;;;;10.91;100.00;95387.47;6164547;23;20186;-84
2023/11/13 07:23:19;;;;;;;3.57;1.20;;;;;;;10.92;100.00;95380.53;6162719;23;20183;-84
2023/11/13 07:25:46;;;;;;;3.27;1.10;;;;;;;10.96;100.00;95380.00;6163903;23;20202;-83
2023/11/13 07:28:15;;;;;;;6.03;1.20;;;;;;;10.99;100.00;95382.19;6164175;23;20922;-84
2023/11/13 07:30:42;;;;;;;3.73;1.10;;;;;;;10.99;100.00;95389.91;6163724;23;20175;-84
2023/11/13 07:33:09;;;;;;;2.17;0.90;;;;;;;10.97;100.00;95397.03;6162642;23;20179;-83
2023/11/13 07:35:37;;;;;;;4.20;1.20;;;;;;;10.97;100.00;95416.84;6163213;23;20185;-84
2023/11/13 07:38:07;;;;;;;3.07;1.10;;;;;;;10.97;100.00;95407.34;6162755;23;20205;-83
2023/11/13 07:40:33;;;;;;;5.53;0.80;;;;;;;11.04;100.00;95407.41;6164071;23;20179;-83
2023/11/13 07:43:00;;;;;;;1.20;0.90;;;;;;;11.01;100.00;95405.19;6160538;23;20185;-83
2023/11/13 07:45:26;;;;;;;2.37;0.90;;;;;;;11.00;100.00;95391.50;6157820;23;20182;-84
2023/11/13 07:47:56;;;;;;;1.43;1.00;;;;;;;11.00;100.00;95380.41;6157931;23;20202;-84
2023/11/13 07:50:23;;;;;;;0.83;0.80;;;;;;;10.97;100.00;95385.91;6163730;23;20179;-84
2023/11/13 07:52:50;;;;;;;2.63;0.93;;;;;;;10.93;100.00;95379.56;6163786;23;20667;-83
2023/11/13 07:55:18;;;;;;;3.80;2.80;;;;;;;10.96;100.00;95380.00;6162460;23;20179;-84
2023/11/13 07:57:45;;;;;;;2.23;0.93;;;;;;;10.91;100.00;95353.19;6163946;23;20198;-83
2023/11/13 08:00:15;;;;;;;1.03;0.80;;;;;;;10.93;100.00;95366.69;6163456;23;20202;-84
2023/11/13 08:02:42;;;;;;;1.27;0.90;;;;;;;10.90;100.00;95377.34;6164404;23;20170;-83
2023/11/13 08:05:11;;;;;;;2.03;0.87;;;;;;;10.93;100.00;95380.38;6164167;23;20209;-84
2023/11/13 08:07:39;;;;;;;2.03;0.90;;;;;;;10.97;100.00;95375.63;6164730;23;20226;-84
2023/11/13 08:10:11;;;;;;;1.47;0.90;;;;;;;10.98;100.00;95375.44;6164899;23;20198;-83
2023/11/13 08:12:38;;;;;;;1.83;0.90;;;;;;;11.00;100.00;95362.38;6161697;23;20194;-84
2023/11/13 08:15:07;;;;;;;1.10;1.00;;;;;;;10.97;100.00;95352.44;6163975;23;20179;-85
2023/11/13 08:17:34;;;;;;;2.13;0.90;;;;;;;10.95;100.00;95350.06;6164195;23;20195;-84
2023/11/13 08:20:01;;;;;;;1.87;0.87;;;;;;;10.95;100.00;95355.22;6163272;23;20195;-84
2023/11/13 08:22:29;;;;;;;1.70;0.90;;;;;;;10.94;100.00;95381.97;6164154;23;20262;-84
2023/11/13 08:24:55;;;;;;;1.13;0.83;;;;;;;10.94;100.00;95394.03;6162715;23;20234;-84
2023/11/13 08:27:21;;;;;;;0.70;0.70;;;;;;;10.89;100.00;95435.00;6161009;23;20250;-84
2023/11/13 08:29:49;;;;;;;1.30;0.90;;;;;;;10.90;100.00;95463.16;6162850;23;20178;-85
2023/11/13 08:32:17;;;;;;;1.90;0.80;;;;;;;10.83;100.00;95494.94;6163697;23;20265;-84
2023/11/13 08:34:43;;;;;;;1.63;0.60;;;;;;;10.81;100.00;95502.84;6161762;23;20186;-84
2023/11/13 08:37:11;;;;;;;3.53;1.17;;;;;;;10.83;100.00;95525.84;6160872;23;20555;-83
2023/11/13 08:39:39;;;;;;;0.80;0.70;;;;;;;10.78;100.00;95541.03;6160906;23;20267;-83
2023/11/13 08:42:06;;;;;;;2.60;0.80;;;;;;;10.77;100.00;95562.63;6160684;23;20261;-84
2023/11/13 08:44:33;;;;;;;2.70;0.80;;;;;;;10.82;100.00;95578.34;6159987;23;20611;-83
2023/11/13 08:46:59;;;;;;;2.40;1.70;;;;;;;10.84;100.00;95569.47;6161840;23;20198;-83
2023/11/13 08:49:29;;;;;;;1.57;0.70;;;;;;;10.82;100.00;95573.19;6159840;23;20175;-84
2023/11/13 08:51:56;;;;;;;2.30;0.80;;;;;;;10.77;100.00;95578.09;6159715;23;20175;-84
2023/11/13 08:54:23;;;;;;;0.83;0.50;;;;;;;10.78;100.00;95584.81;6160193;23;20653;-83
2023/11/13 08:56:55;;;;;;;2.70;0.87;;;;;;;10.79;100.00;95582.06;6159507;23;20195;-83
2023/11/13 08:59:22;;;;;;;0.80;0.80;;;;;;;10.76;100.00;95597.91;6158522;23;20210;-84
2023/11/13 09:01:49;;;;;;;1.63;0.90;;;;;;;10.77;100.00;95593.53;6161620;23;20185;-84
2023/11/13 09:04:15;;;;;;;1.53;0.90;;;;;;;10.81;100.00;95602.50;6161246;23;20183;-82
2023/11/13 09:06:45;;;;;;;1.57;0.80;;;;;;;10.86;100.00;95588.13;6160553;23;20195;-83
2023/11/13 09:09:12;;;;;;;1.53;0.90;;;;;;;10.83;100.00;95601.34;6160467;23;20179;-83
2023/11/13 09:11:40;;;;;;;1.60;0.80;;;;;;;10.87;100.00;95600.03;6159858;23;20179;-83
2023/11/13 09:14:10;;;;;;;2.40;1.00;;;;;;;10.90;100.00;95596.28;6160233;23;20185;-83
2023/11/13 09:16:38;;;;;;;1.60;0.90;;;;;;;10.92;100.00;95594.34;6159393;23;20207;-83
2023/11/13 09:19:05;;;;;;;1.33;1.00;;;;;;;10.91;100.00;95590.97;6159342;23;20202;-83
2023/11/13 09:21:31;;;;;;;2.83;1.20;;;;;;;10.94;100.00;95595.75;6159618;23;20678;-84
2023/11/13 09:23:58;;;;;;;3.10;0.97;;;;;;;10.97;100.00;95592.00;6157744;23;20182;-83
2023/11/13 09:26:25;;;;;;;1.50;1.10;;;;;;;10.97;100.00;95597.16;6158005;23;20199;-83
2023/11/13 09:28:53;;;;;;;2.17;1.03;;;;;;;10.98;100.00;95598.75;6159729;23;20171;-83
2023/11/13 09:31:21;;;;;;;1.97;0.97;;;;;;;10.98;100.00;95606.50;6160173;23;20234;-84
2023/11/13 09:33:47;;;;;;;2.73;1.10;;;;;;;10.96;100.00;95598.16;6160279;23;20579;-83
2023/11/13 09:36:14;;;;;;;1.60;0.97;;;;;;;10.97;100.00;95607.47;6160831;23;20209;-83
2023/11/13 09:38:40;;;;;;;1.63;1.10;;;;;;;10.93;100.00;95607.03;6161738;23;20185;-84
2023/11/13 09:41:08;;;;;;;2.20;1.13;;;;;;;10.94;100.00;95613.00;6161158;23;20179;-83
2023/11/13 09:43:35;;;;;;;5.17;4.47;;;;;;;10.91;100.00;95618.50;6161488;23;20665;-83
2023/11/13 09:46:06;;;;;;;5.80;2.10;;;;;;;10.88;100.00;95621.41;6162436;23;20229;-84
2023/11/13 09:48:36;;;;;;;2.77;1.50;;;;;;;10.87;100.00;95633.50;6156749;23;20163;-83
2023/11/13 09:51:03;;;;;;;2.80;1.97;;;;;;;10.87;100.00;95630.13;6159942;23;20781;-83
2023/11/13 09:53:29;;;;;;;3.20;1.50;;;;;;;10.88;100.00;95634.31;6158681;23;20190;-83
2023/11/13 09:55:56;;;;;;;2.97;1.80;;;;;;;10.92;100.00;95635.56;6161629;23;20185;-83
2023/11/13 09:58:24;;;;;;;2.43;1.50;;;;;;;10.98;100.00;95637.41;6158847;23;20190;-84
2023/11/13 10:00:52;;;;;;;2.40;1.50;;;;;;;10.98;100.00;95630.47;6156113;23;20594;-83
2023/11/13 10:03:18;;;;;;;8.70;2.00;;;;;;;10.97;100.00;95613.41;6156250;23;20840;-83
2023/11/13 10:05:46;;;;;;;3.40;1.77;;;;;;;10.88;100.00;95608.53;6163394;23;20182;-84
2023/11/13 10:08:14;;;;;;;2.37;1.60;;;;;;;10.87;100.00;95620.63;6159969;23;20202;-83
2023/11/13 10:10:40;;;;;;;2.10;1.50;;;;;;;10.90;100.00;95609.97;6156273;23;20508;-83
2023/11/13 10:13:10;;;;;;;3.60;1.90;;;;;;;10.87;100.00;95605.16;6159946;23;20186;-83
2023/11/13 10:15:41;;;;;;;3.30;2.00;;;;;;;10.90;100.00;95596.28;6157059;23;20210;-83
2023/11/13 10:18:08;;;;;;;2.80;1.80;;;;;;;10.93;100.00;95606.25;6157349;23;20219;-83
2023/11/13 10:20:42;;;;;;;4.33;2.27;;;;;;;10.91;100.00;95592.75;6156413;23;20558;-83
2023/11/13 10:23:13;;;;;;;2.97;1.90;;;;;;;10.91;100.00;95593.53;6156540;23;20163;-82
2023/11/13 10:25:46;;;;;;;1.80;1.60;;;;;;;10.89;100.00;95584.38;6157818;23;20191;-85
2023/11/13 10:28:13;;;;;;;1.40;1.30;;;;;;;10.93;100.00;95581.28;6155957;23;20202;-83
2023/11/13 10:30:55;;;;;;;2.70;1.20;;;;;;;10.95;100.00;95583.69;6156607;23;20175;-84
2023/11/13 10:33:22;;;;;;;1.50;1.10;;;;;;;10.87;100.00;95594.06;6156981;23;20764;-84
2023/11/13 10:35:50;;;;;;;1.00;0.90;;;;;;;10.79;100.00;95586.41;6157081;23;20179;-83
2023/11/13 10:38:20;;;;;;;0.80;0.80;;;;;;;10.79;100.00;95584.63;6158357;23;20273;-83
2023/11/13 10:40:55;;;;;;;1.80;1.00;;;;;;;10.87;100.00;95594.06;6158206;23;20191;-85
2023/11/13 10:43:28;;;;;;;1.67;1.07;;;;;;;10.87;100.00;95586.34;6156541;23;20500;-84
2023/11/13 10:45:55;;;;;;;1.23;0.87;;;;;;;10.87;100.00;95583.75;6158639;23;20169;-83
2023/11/13 10:48:23;;;;;;;0.87;0.83;;;;;;;10.89;100.00;95582.63;6157527;23;20175;-83
2023/11/13 10:50:50;;;;;;;0.70;0.70;;;;;;;10.96;100.00;95583.50;6156737;23;20186;-84
2023/11/13 10:53:18;;;;;;;1.57;1.00;;;;;;;11.01;100.00;95575.22;6155220;23;20190;-84
2023/11/13 10:55:46;;;;;;;1.07;0.80;;;;;;;11.06;100.00;95570.34;6157406;23;20647;-83
2023/11/13 10:58:12;;;;;;;1.20;0.90;;;;;;;11.11;100.00;95562.06;6158780;23;20206;-83
2023/11/13 11:00:41;;;;;;;1.27;0.80;;;;;;;11.16;100.00;95559.75;6159101;23;20226;-83
2023/11/13 11:03:10;;;;;;;1.23;0.80;;;;;;;11.14;100.00;95551.41;6158063;23;20706;-83
2023/11/13 11:05:41;;;;;;;2.73;1.00;;;;;;;11.14;100.00;95547.06;6158696;23;20201;-83
2023/11/13 11:08:08;;;;;;;2.00;1.60;;;;;;;11.19;100.00;95539.56;6158955;23;20202;-84
2023/11/13 11:10:37;;;;;;;1.43;1.10;;;;;;;11.25;100.00;95536.28;6157821;23;20176;-83
2023/11/13 11:13:08;;;;;;;1.57;0.90;;;;;;;11.32;100.00;95528.63;6157391;23;20179;-83
2023/11/13 11:16:14;;;;;;;1.10;0.80;;;;;;;11.34;100.00;95524.88;6156186;23;20160;-83
2023/11/13 11:18:46;;;;;;;2.00;1.10;;;;;;;11.37;100.00;95513.38;6155917;23;20174;-82
2023/11/13 11:21:25;;;;;;;1.63;1.10;;;;;;;11.39;100.00;95504.50;6155717;23;20179;-84
2023/11/13 11:23:57;;;;;;;2.80;1.20;;;;;;;11.47;100.00;95497.63;6156459;23;20179;-83
2023/11/13 11:26:25;;;;;;;2.27;1.20;;;;;;;11.52;100.00;95496.09;6154709;23;20611;-83
2023/11/13 11:28:54;;;;;;;1.57;1.17;;;;;;;11.52;100.00;95501.25;6153866;23;20256;-83
2023/11/13 11:31:47;;;;;;;1.30;1.13;;;;;;;11.55;100.00;95484.59;6154916;23;20179;-83